sensor_id;sensor_type;location;lat;lon;timestamp;P1;durP1;ratioP1;P2;durP2;ratioP2
47617;SDS011;33336;36.728;-4.414;2023-02-12T00:02:49;11.75;;;4.10;;
47617;SDS011;33336;36.728;-4.414;2023-02-12T00:07:52;13.68;;;6.72;;
47617;SDS011;33336;36.728;-4.414;2023-02-12T00:12:55;9.63;;;3.67;;
47617;SDS011;33336;36.728;-4.414;2023-02-12T00:18:00;13.02;;;3.60;;
47617;SDS011;33336;36.728;-4.414;2023-02-12T00:23:05;16.52;;;3.50;;
47617;SDS011;33336;36.728;-4.414;2023-02-12T00:28:08;9.38;;;3.58;;
47617;SDS011;33336;36.728;-4.414;2023-02-12T00:33:13;9.02;;;3.00;;
47617;SDS011;33336;36.728;-4.414;2023-02-12T00:38:16;9.55;;;3.72;;
47617;SDS011;33336;36.728;-4.414;2023-02-12T00:43:19;14.18;;;3.72;;
47617;SDS011;33336;36.728;-4.414;2023-02-12T00:48:24;13.82;;;4.47;;
47617;SDS011;33336;36.728;-4.414;2023-02-12T00:53:28;17.00;;;3.20;;
47617;SDS011;33336;36.728;-4.414;2023-02-12T00:58:31;13.38;;;3.80;;
47617;SDS011;33336;36.728;-4.414;2023-02-12T01:03:36;13.60;;;3.63;;
47617;SDS011;33336;36.728;-4.414;2023-02-12T01:08:39;11.82;;;3.90;;
47617;SDS011;33336;36.728;-4.414;2023-02-12T01:13:42;16.98;;;3.10;;
47617;SDS011;33336;36.728;-4.414;2023-02-12T01:18:47;13.25;;;2.97;;
47617;SDS011;33336;36.728;-4.414;2023-02-12T01:23:50;18.08;;;4.47;;
47617;SDS011;33336;36.728;-4.414;2023-02-12T01:28:57;19.33;;;4.18;;
47617;SDS011;33336;36.728;-4.414;2023-02-12T01:34:03;14.65;;;3.70;;
47617;SDS011;33336;36.728;-4.414;2023-02-12T01:39:09;11.27;;;3.08;;
47617;SDS011;33336;36.728;-4.414;2023-02-12T01:44:14;11.48;;;2.45;;
47617;SDS011;33336;36.728;-4.414;2023-02-12T01:49:20;15.27;;;3.95;;
47617;SDS011;33336;36.728;-4.414;2023-02-12T01:54:25;12.63;;;3.72;;
47617;SDS011;33336;36.728;-4.414;2023-02-12T01:59:29;10.68;;;3.28;;
47617;SDS011;33336;36.728;-4.414;2023-02-12T02:04:37;9.85;;;3.05;;
47617;SDS011;33336;36.728;-4.414;2023-02-12T02:09:44;10.27;;;3.03;;
47617;SDS011;33336;36.728;-4.414;2023-02-12T02:14:47;8.48;;;2.90;;
47617;SDS011;33336;36.728;-4.414;2023-02-12T02:26:01;9.52;;;2.42;;
47617;SDS011;33336;36.728;-4.414;2023-02-12T02:31:24;8.68;;;2.25;;
47617;SDS011;33336;36.728;-4.414;2023-02-12T02:36:33;6.97;;;2.15;;
47617;SDS011;33336;36.728;-4.414;2023-02-12T02:41:42;12.98;;;2.38;;
47617;SDS011;33336;36.728;-4.414;2023-02-12T02:46:50;12.18;;;2.97;;
47617;SDS011;33336;36.728;-4.414;2023-02-12T02:51:56;12.50;;;2.50;;
47617;SDS011;33336;36.728;-4.414;2023-02-12T02:57:05;10.15;;;2.75;;
47617;SDS011;33336;36.728;-4.414;2023-02-12T03:02:16;10.95;;;2.67;;
47617;SDS011;33336;36.728;-4.414;2023-02-12T03:07:23;16.25;;;2.40;;
47617;SDS011;33336;36.728;-4.414;2023-02-12T03:12:30;10.15;;;2.22;;
47617;SDS011;33336;36.728;-4.414;2023-02-12T03:17:39;7.80;;;2.00;;
47617;SDS011;33336;36.728;-4.414;2023-02-12T03:22:45;10.35;;;2.53;;
47617;SDS011;33336;36.728;-4.414;2023-02-12T03:27:54;17.02;;;2.88;;
47617;SDS011;33336;36.728;-4.414;2023-02-12T03:33:05;10.80;;;2.17;;
47617;SDS011;33336;36.728;-4.414;2023-02-12T03:38:19;16.33;;;3.45;;
47617;SDS011;33336;36.728;-4.414;2023-02-12T03:43:31;9.43;;;2.55;;
47617;SDS011;33336;36.728;-4.414;2023-02-12T03:48:40;16.27;;;2.28;;
47617;SDS011;33336;36.728;-4.414;2023-02-12T03:53:48;15.75;;;2.17;;
47617;SDS011;33336;36.728;-4.414;2023-02-12T03:58:51;10.43;;;2.35;;
47617;SDS011;33336;36.728;-4.414;2023-02-12T04:03:56;9.13;;;2.40;;
47617;SDS011;33336;36.728;-4.414;2023-02-12T04:09:02;12.82;;;2.33;;
47617;SDS011;33336;36.728;-4.414;2023-02-12T04:14:14;16.85;;;2.92;;
47617;SDS011;33336;36.728;-4.414;2023-02-12T04:19:25;11.77;;;3.63;;
47617;SDS011;33336;36.728;-4.414;2023-02-12T04:24:37;10.70;;;2.35;;
47617;SDS011;33336;36.728;-4.414;2023-02-12T04:29:49;17.05;;;2.90;;
47617;SDS011;33336;36.728;-4.414;2023-02-12T04:34:57;15.47;;;2.37;;
47617;SDS011;33336;36.728;-4.414;2023-02-12T04:40:09;12.57;;;3.22;;
47617;SDS011;33336;36.728;-4.414;2023-02-12T04:50:22;14.85;;;2.83;;
47617;SDS011;33336;36.728;-4.414;2023-02-12T04:55:26;11.00;;;2.15;;
47617;SDS011;33336;36.728;-4.414;2023-02-12T05:00:29;15.82;;;2.45;;
47617;SDS011;33336;36.728;-4.414;2023-02-12T05:05:33;11.25;;;2.70;;
47617;SDS011;33336;36.728;-4.414;2023-02-12T05:10:36;10.25;;;2.35;;
47617;SDS011;33336;36.728;-4.414;2023-02-12T05:15:39;15.20;;;2.38;;
47617;SDS011;33336;36.728;-4.414;2023-02-12T05:20:44;18.77;;;3.03;;
47617;SDS011;33336;36.728;-4.414;2023-02-12T05:25:47;11.75;;;2.97;;
47617;SDS011;33336;36.728;-4.414;2023-02-12T05:30:51;12.75;;;2.55;;
47617;SDS011;33336;36.728;-4.414;2023-02-12T05:36:01;14.73;;;2.78;;
47617;SDS011;33336;36.728;-4.414;2023-02-12T05:41:07;14.48;;;2.40;;
47617;SDS011;33336;36.728;-4.414;2023-02-12T05:46:12;14.82;;;3.03;;
47617;SDS011;33336;36.728;-4.414;2023-02-12T05:51:16;11.60;;;2.33;;
47617;SDS011;33336;36.728;-4.414;2023-02-12T05:56:22;20.45;;;2.80;;
47617;SDS011;33336;36.728;-4.414;2023-02-12T06:01:27;15.70;;;2.78;;
47617;SDS011;33336;36.728;-4.414;2023-02-12T06:06:33;21.15;;;2.95;;
47617;SDS011;33336;36.728;-4.414;2023-02-12T06:11:37;19.00;;;2.92;;
47617;SDS011;33336;36.728;-4.414;2023-02-12T06:16:42;13.18;;;2.22;;
47617;SDS011;33336;36.728;-4.414;2023-02-12T06:21:48;24.17;;;3.20;;
47617;SDS011;33336;36.728;-4.414;2023-02-12T06:26:50;19.15;;;3.80;;
47617;SDS011;33336;36.728;-4.414;2023-02-12T06:31:53;13.20;;;3.33;;
47617;SDS011;33336;36.728;-4.414;2023-02-12T06:36:57;27.25;;;3.45;;
47617;SDS011;33336;36.728;-4.414;2023-02-12T06:42:01;22.65;;;3.75;;
47617;SDS011;33336;36.728;-4.414;2023-02-12T06:47:04;22.42;;;5.63;;
47617;SDS011;33336;36.728;-4.414;2023-02-12T06:52:09;15.30;;;2.90;;
47617;SDS011;33336;36.728;-4.414;2023-02-12T06:57:12;16.27;;;2.72;;
47617;SDS011;33336;36.728;-4.414;2023-02-12T07:02:16;17.02;;;3.17;;
47617;SDS011;33336;36.728;-4.414;2023-02-12T07:07:20;14.07;;;2.72;;
47617;SDS011;33336;36.728;-4.414;2023-02-12T07:12:24;14.52;;;2.67;;
47617;SDS011;33336;36.728;-4.414;2023-02-12T07:17:28;8.80;;;2.53;;
47617;SDS011;33336;36.728;-4.414;2023-02-12T07:22:35;24.83;;;5.70;;
47617;SDS011;33336;36.728;-4.414;2023-02-12T07:27:38;12.73;;;2.80;;
47617;SDS011;33336;36.728;-4.414;2023-02-12T07:32:41;17.02;;;2.60;;
47617;SDS011;33336;36.728;-4.414;2023-02-12T07:37:45;15.10;;;3.42;;
47617;SDS011;33336;36.728;-4.414;2023-02-12T07:42:48;19.30;;;2.92;;
47617;SDS011;33336;36.728;-4.414;2023-02-12T07:47:56;22.60;;;4.60;;
47617;SDS011;33336;36.728;-4.414;2023-02-12T07:53:01;17.08;;;4.80;;
47617;SDS011;33336;36.728;-4.414;2023-02-12T07:58:04;18.20;;;3.30;;
47617;SDS011;33336;36.728;-4.414;2023-02-12T08:03:07;13.85;;;3.03;;
47617;SDS011;33336;36.728;-4.414;2023-02-12T08:08:11;12.82;;;2.55;;
47617;SDS011;33336;36.728;-4.414;2023-02-12T08:13:15;17.40;;;3.13;;
47617;SDS011;33336;36.728;-4.414;2023-02-12T08:18:18;14.20;;;2.97;;
47617;SDS011;33336;36.728;-4.414;2023-02-12T08:23:23;12.82;;;2.67;;
47617;SDS011;33336;36.728;-4.414;2023-02-12T08:28:25;14.07;;;2.58;;
47617;SDS011;33336;36.728;-4.414;2023-02-12T08:33:28;18.00;;;2.63;;
47617;SDS011;33336;36.728;-4.414;2023-02-12T08:38:32;20.25;;;3.80;;
47617;SDS011;33336;36.728;-4.414;2023-02-12T08:43:36;14.32;;;3.05;;
47617;SDS011;33336;36.728;-4.414;2023-02-12T08:48:40;21.77;;;3.67;;
47617;SDS011;33336;36.728;-4.414;2023-02-12T08:53:46;17.67;;;3.42;;
47617;SDS011;33336;36.728;-4.414;2023-02-12T08:58:52;18.98;;;3.47;;
47617;SDS011;33336;36.728;-4.414;2023-02-12T09:03:55;17.50;;;3.72;;
47617;SDS011;33336;36.728;-4.414;2023-02-12T09:09:02;19.35;;;3.75;;
47617;SDS011;33336;36.728;-4.414;2023-02-12T09:14:09;20.33;;;4.32;;
47617;SDS011;33336;36.728;-4.414;2023-02-12T09:19:13;14.02;;;3.00;;
47617;SDS011;33336;36.728;-4.414;2023-02-12T09:24:18;20.98;;;3.97;;
47617;SDS011;33336;36.728;-4.414;2023-02-12T09:29:20;18.25;;;3.70;;
47617;SDS011;33336;36.728;-4.414;2023-02-12T09:34:24;17.30;;;3.63;;
47617;SDS011;33336;36.728;-4.414;2023-02-12T09:39:28;17.65;;;3.58;;
47617;SDS011;33336;36.728;-4.414;2023-02-12T09:44:34;20.38;;;3.60;;
47617;SDS011;33336;36.728;-4.414;2023-02-12T09:49:48;20.17;;;4.15;;
47617;SDS011;33336;36.728;-4.414;2023-02-12T09:55:02;19.17;;;4.55;;
47617;SDS011;33336;36.728;-4.414;2023-02-12T10:00:06;20.77;;;3.80;;
47617;SDS011;33336;36.728;-4.414;2023-02-12T10:05:14;18.20;;;3.35;;
47617;SDS011;33336;36.728;-4.414;2023-02-12T10:10:24;21.90;;;3.75;;
47617;SDS011;33336;36.728;-4.414;2023-02-12T10:15:37;19.70;;;3.60;;
47617;SDS011;33336;36.728;-4.414;2023-02-12T10:20:52;19.38;;;4.18;;
47617;SDS011;33336;36.728;-4.414;2023-02-12T10:26:05;23.90;;;3.15;;
47617;SDS011;33336;36.728;-4.414;2023-02-12T10:31:18;22.25;;;4.32;;
47617;SDS011;33336;36.728;-4.414;2023-02-12T10:36:33;27.73;;;3.95;;
47617;SDS011;33336;36.728;-4.414;2023-02-12T10:41:45;26.33;;;3.80;;
47617;SDS011;33336;36.728;-4.414;2023-02-12T10:46:51;24.02;;;3.53;;
47617;SDS011;33336;36.728;-4.414;2023-02-12T10:52:02;25.38;;;5.05;;
47617;SDS011;33336;36.728;-4.414;2023-02-12T10:57:16;19.83;;;3.75;;
47617;SDS011;33336;36.728;-4.414;2023-02-12T11:02:22;19.33;;;3.05;;
47617;SDS011;33336;36.728;-4.414;2023-02-12T11:07:37;33.60;;;4.18;;
47617;SDS011;33336;36.728;-4.414;2023-02-12T11:12:49;20.13;;;3.30;;
47617;SDS011;33336;36.728;-4.414;2023-02-12T11:17:56;29.63;;;4.32;;
47617;SDS011;33336;36.728;-4.414;2023-02-12T11:23:01;15.73;;;3.47;;
47617;SDS011;33336;36.728;-4.414;2023-02-12T11:28:14;17.73;;;3.78;;
47617;SDS011;33336;36.728;-4.414;2023-02-12T11:33:22;26.35;;;4.00;;
47617;SDS011;33336;36.728;-4.414;2023-02-12T11:38:29;16.27;;;3.53;;
47617;SDS011;33336;36.728;-4.414;2023-02-12T11:43:35;17.13;;;3.55;;
47617;SDS011;33336;36.728;-4.414;2023-02-12T11:48:40;19.67;;;3.88;;
47617;SDS011;33336;36.728;-4.414;2023-02-12T11:53:48;17.65;;;3.95;;
47617;SDS011;33336;36.728;-4.414;2023-02-12T11:58:55;18.88;;;3.08;;
47617;SDS011;33336;36.728;-4.414;2023-02-12T12:04:14;21.70;;;3.78;;
47617;SDS011;33336;36.728;-4.414;2023-02-12T12:09:20;26.95;;;4.25;;
47617;SDS011;33336;36.728;-4.414;2023-02-12T12:14:30;20.05;;;4.40;;
47617;SDS011;33336;36.728;-4.414;2023-02-12T12:19:58;23.85;;;4.10;;
47617;SDS011;33336;36.728;-4.414;2023-02-12T12:25:12;21.88;;;3.88;;
47617;SDS011;33336;36.728;-4.414;2023-02-12T12:30:23;73.15;;;8.45;;
47617;SDS011;33336;36.728;-4.414;2023-02-12T12:35:43;125.65;;;11.68;;
47617;SDS011;33336;36.728;-4.414;2023-02-12T12:40:58;55.28;;;5.57;;
47617;SDS011;33336;36.728;-4.414;2023-02-12T12:46:14;19.17;;;4.90;;
47617;SDS011;33336;36.728;-4.414;2023-02-12T12:51:40;20.95;;;2.83;;
47617;SDS011;33336;36.728;-4.414;2023-02-12T12:56:57;13.52;;;3.20;;
47617;SDS011;33336;36.728;-4.414;2023-02-12T13:02:17;16.23;;;4.20;;
47617;SDS011;33336;36.728;-4.414;2023-02-12T13:07:46;20.15;;;4.22;;
47617;SDS011;33336;36.728;-4.414;2023-02-12T13:18:15;23.55;;;4.20;;
47617;SDS011;33336;36.728;-4.414;2023-02-12T13:23:25;19.88;;;5.68;;
47617;SDS011;33336;36.728;-4.414;2023-02-12T13:28:37;25.50;;;4.43;;
47617;SDS011;33336;36.728;-4.414;2023-02-12T13:33:46;18.35;;;4.07;;
47617;SDS011;33336;36.728;-4.414;2023-02-12T13:38:53;14.45;;;3.70;;
47617;SDS011;33336;36.728;-4.414;2023-02-12T13:44:03;16.02;;;4.28;;
47617;SDS011;33336;36.728;-4.414;2023-02-12T13:49:20;21.35;;;3.88;;
47617;SDS011;33336;36.728;-4.414;2023-02-12T13:54:40;18.05;;;3.38;;
47617;SDS011;33336;36.728;-4.414;2023-02-12T13:59:55;23.40;;;5.15;;
47617;SDS011;33336;36.728;-4.414;2023-02-12T14:05:01;19.42;;;4.18;;
47617;SDS011;33336;36.728;-4.414;2023-02-12T14:10:06;25.10;;;3.65;;
47617;SDS011;33336;36.728;-4.414;2023-02-12T14:15:24;16.30;;;4.30;;
47617;SDS011;33336;36.728;-4.414;2023-02-12T14:20:34;13.93;;;3.80;;
47617;SDS011;33336;36.728;-4.414;2023-02-12T14:25:41;22.80;;;4.97;;
47617;SDS011;33336;36.728;-4.414;2023-02-12T14:36:39;29.30;;;4.95;;
47617;SDS011;33336;36.728;-4.414;2023-02-12T14:41:44;9.48;;;3.10;;
47617;SDS011;33336;36.728;-4.414;2023-02-12T14:46:48;19.13;;;4.18;;
47617;SDS011;33336;36.728;-4.414;2023-02-12T14:51:56;19.40;;;4.28;;
47617;SDS011;33336;36.728;-4.414;2023-02-12T14:57:01;25.67;;;5.32;;
47617;SDS011;33336;36.728;-4.414;2023-02-12T15:02:12;15.07;;;4.38;;
47617;SDS011;33336;36.728;-4.414;2023-02-12T15:07:23;15.60;;;3.65;;
47617;SDS011;33336;36.728;-4.414;2023-02-12T15:12:34;13.38;;;3.33;;
47617;SDS011;33336;36.728;-4.414;2023-02-12T15:17:41;13.82;;;3.97;;
47617;SDS011;33336;36.728;-4.414;2023-02-12T15:22:53;17.25;;;4.63;;
47617;SDS011;33336;36.728;-4.414;2023-02-12T15:27:57;16.00;;;3.85;;
47617;SDS011;33336;36.728;-4.414;2023-02-12T15:33:03;20.13;;;3.47;;
47617;SDS011;33336;36.728;-4.414;2023-02-12T15:38:14;16.65;;;3.85;;
47617;SDS011;33336;36.728;-4.414;2023-02-12T15:43:25;27.20;;;12.30;;
47617;SDS011;33336;36.728;-4.414;2023-02-12T15:48:35;22.13;;;4.18;;
47617;SDS011;33336;36.728;-4.414;2023-02-12T15:53:40;22.15;;;5.70;;
47617;SDS011;33336;36.728;-4.414;2023-02-12T15:58:46;17.85;;;4.80;;
47617;SDS011;33336;36.728;-4.414;2023-02-12T16:03:53;15.45;;;4.07;;
47617;SDS011;33336;36.728;-4.414;2023-02-12T16:09:00;18.83;;;4.38;;
47617;SDS011;33336;36.728;-4.414;2023-02-12T16:14:07;17.00;;;3.63;;
47617;SDS011;33336;36.728;-4.414;2023-02-12T16:19:19;13.45;;;3.95;;
47617;SDS011;33336;36.728;-4.414;2023-02-12T16:24:26;17.23;;;4.50;;
47617;SDS011;33336;36.728;-4.414;2023-02-12T16:29:31;20.92;;;4.90;;
47617;SDS011;33336;36.728;-4.414;2023-02-12T16:34:38;18.00;;;3.78;;
47617;SDS011;33336;36.728;-4.414;2023-02-12T16:45:34;18.35;;;4.13;;
47617;SDS011;33336;36.728;-4.414;2023-02-12T16:50:44;21.60;;;4.25;;
47617;SDS011;33336;36.728;-4.414;2023-02-12T16:55:49;19.67;;;4.00;;
47617;SDS011;33336;36.728;-4.414;2023-02-12T17:00:55;14.98;;;3.40;;
47617;SDS011;33336;36.728;-4.414;2023-02-12T17:05:59;12.68;;;3.55;;
47617;SDS011;33336;36.728;-4.414;2023-02-12T17:11:02;24.05;;;4.45;;
47617;SDS011;33336;36.728;-4.414;2023-02-12T17:16:07;16.70;;;3.58;;
47617;SDS011;33336;36.728;-4.414;2023-02-12T17:21:13;16.77;;;4.00;;
47617;SDS011;33336;36.728;-4.414;2023-02-12T17:26:24;19.10;;;3.97;;
47617;SDS011;33336;36.728;-4.414;2023-02-12T17:31:29;24.95;;;5.60;;
47617;SDS011;33336;36.728;-4.414;2023-02-12T17:36:32;22.38;;;4.97;;
47617;SDS011;33336;36.728;-4.414;2023-02-12T17:41:36;20.85;;;4.40;;
47617;SDS011;33336;36.728;-4.414;2023-02-12T17:46:40;21.23;;;3.80;;
47617;SDS011;33336;36.728;-4.414;2023-02-12T17:51:45;16.70;;;4.53;;
47617;SDS011;33336;36.728;-4.414;2023-02-12T17:56:48;15.25;;;3.63;;
47617;SDS011;33336;36.728;-4.414;2023-02-12T18:01:52;16.73;;;3.40;;
47617;SDS011;33336;36.728;-4.414;2023-02-12T18:06:55;19.20;;;4.13;;
47617;SDS011;33336;36.728;-4.414;2023-02-12T18:11:59;19.25;;;5.18;;
47617;SDS011;33336;36.728;-4.414;2023-02-12T18:17:03;21.65;;;4.47;;
47617;SDS011;33336;36.728;-4.414;2023-02-12T18:22:07;21.55;;;4.95;;
47617;SDS011;33336;36.728;-4.414;2023-02-12T18:27:10;26.75;;;5.18;;
47617;SDS011;33336;36.728;-4.414;2023-02-12T18:32:14;27.63;;;5.38;;
47617;SDS011;33336;36.728;-4.414;2023-02-12T18:37:17;20.73;;;5.00;;
47617;SDS011;33336;36.728;-4.414;2023-02-12T18:42:21;24.95;;;5.72;;
47617;SDS011;33336;36.728;-4.414;2023-02-12T18:47:25;20.88;;;4.50;;
47617;SDS011;33336;36.728;-4.414;2023-02-12T18:52:29;28.77;;;5.40;;
47617;SDS011;33336;36.728;-4.414;2023-02-12T18:57:32;27.73;;;5.57;;
47617;SDS011;33336;36.728;-4.414;2023-02-12T19:02:37;23.08;;;5.60;;
47617;SDS011;33336;36.728;-4.414;2023-02-12T19:07:40;23.08;;;5.32;;
47617;SDS011;33336;36.728;-4.414;2023-02-12T19:12:43;27.40;;;5.25;;
47617;SDS011;33336;36.728;-4.414;2023-02-12T19:17:47;33.05;;;5.07;;
47617;SDS011;33336;36.728;-4.414;2023-02-12T19:22:51;21.77;;;5.03;;
47617;SDS011;33336;36.728;-4.414;2023-02-12T19:27:54;20.30;;;4.55;;
47617;SDS011;33336;36.728;-4.414;2023-02-12T19:32:59;25.00;;;4.45;;
47617;SDS011;33336;36.728;-4.414;2023-02-12T19:38:02;18.95;;;5.45;;
47617;SDS011;33336;36.728;-4.414;2023-02-12T19:43:06;26.00;;;4.70;;
47617;SDS011;33336;36.728;-4.414;2023-02-12T19:48:10;19.98;;;4.60;;
47617;SDS011;33336;36.728;-4.414;2023-02-12T19:53:13;25.70;;;5.70;;
47617;SDS011;33336;36.728;-4.414;2023-02-12T19:58:16;27.33;;;5.50;;
47617;SDS011;33336;36.728;-4.414;2023-02-12T20:03:20;17.90;;;4.30;;
47617;SDS011;33336;36.728;-4.414;2023-02-12T20:08:23;18.63;;;5.03;;
47617;SDS011;33336;36.728;-4.414;2023-02-12T20:13:29;20.42;;;4.30;;
47617;SDS011;33336;36.728;-4.414;2023-02-12T20:18:34;28.98;;;6.60;;
47617;SDS011;33336;36.728;-4.414;2023-02-12T20:23:38;21.40;;;5.22;;
47617;SDS011;33336;36.728;-4.414;2023-02-12T20:28:42;20.70;;;5.00;;
47617;SDS011;33336;36.728;-4.414;2023-02-12T20:33:51;31.25;;;5.32;;
47617;SDS011;33336;36.728;-4.414;2023-02-12T20:38:55;38.92;;;6.90;;
47617;SDS011;33336;36.728;-4.414;2023-02-12T20:43:59;34.35;;;5.95;;
47617;SDS011;33336;36.728;-4.414;2023-02-12T20:49:03;26.23;;;5.07;;
47617;SDS011;33336;36.728;-4.414;2023-02-12T20:54:07;25.13;;;4.72;;
47617;SDS011;33336;36.728;-4.414;2023-02-12T20:59:11;27.83;;;4.85;;
47617;SDS011;33336;36.728;-4.414;2023-02-12T21:04:16;24.33;;;5.80;;
47617;SDS011;33336;36.728;-4.414;2023-02-12T21:09:22;27.60;;;5.40;;
47617;SDS011;33336;36.728;-4.414;2023-02-12T21:14:26;30.35;;;6.88;;
47617;SDS011;33336;36.728;-4.414;2023-02-12T21:19:31;28.25;;;4.70;;
47617;SDS011;33336;36.728;-4.414;2023-02-12T21:24:37;17.10;;;4.25;;
47617;SDS011;33336;36.728;-4.414;2023-02-12T21:29:42;21.27;;;4.13;;
47617;SDS011;33336;36.728;-4.414;2023-02-12T21:34:48;30.30;;;4.45;;
47617;SDS011;33336;36.728;-4.414;2023-02-12T21:39:52;23.35;;;4.32;;
47617;SDS011;33336;36.728;-4.414;2023-02-12T21:44:56;22.67;;;3.80;;
47617;SDS011;33336;36.728;-4.414;2023-02-12T21:50:00;23.05;;;4.50;;
47617;SDS011;33336;36.728;-4.414;2023-02-12T21:55:04;28.30;;;4.72;;
47617;SDS011;33336;36.728;-4.414;2023-02-12T22:00:08;18.70;;;5.03;;
47617;SDS011;33336;36.728;-4.414;2023-02-12T22:05:13;21.58;;;4.82;;
47617;SDS011;33336;36.728;-4.414;2023-02-12T22:10:16;22.17;;;4.45;;
47617;SDS011;33336;36.728;-4.414;2023-02-12T22:15:20;25.65;;;5.60;;
47617;SDS011;33336;36.728;-4.414;2023-02-12T22:20:24;25.77;;;4.97;;
47617;SDS011;33336;36.728;-4.414;2023-02-12T22:25:28;18.05;;;4.10;;
47617;SDS011;33336;36.728;-4.414;2023-02-12T22:30:31;22.73;;;5.20;;
47617;SDS011;33336;36.728;-4.414;2023-02-12T22:35:35;30.98;;;5.13;;
47617;SDS011;33336;36.728;-4.414;2023-02-12T22:40:38;21.60;;;5.97;;
47617;SDS011;33336;36.728;-4.414;2023-02-12T22:45:42;29.80;;;5.47;;
47617;SDS011;33336;36.728;-4.414;2023-02-12T22:50:46;26.88;;;4.80;;
47617;SDS011;33336;36.728;-4.414;2023-02-12T22:55:50;26.80;;;6.15;;
47617;SDS011;33336;36.728;-4.414;2023-02-12T23:00:53;30.65;;;5.47;;
47617;SDS011;33336;36.728;-4.414;2023-02-12T23:05:59;17.98;;;4.97;;
47617;SDS011;33336;36.728;-4.414;2023-02-12T23:11:02;25.17;;;5.00;;
47617;SDS011;33336;36.728;-4.414;2023-02-12T23:16:06;26.08;;;5.07;;
47617;SDS011;33336;36.728;-4.414;2023-02-12T23:21:13;17.95;;;4.38;;
47617;SDS011;33336;36.728;-4.414;2023-02-12T23:26:17;20.23;;;5.10;;
47617;SDS011;33336;36.728;-4.414;2023-02-12T23:31:20;27.48;;;5.00;;
47617;SDS011;33336;36.728;-4.414;2023-02-12T23:36:24;17.38;;;3.95;;
47617;SDS011;33336;36.728;-4.414;2023-02-12T23:41:27;18.65;;;3.72;;
47617;SDS011;33336;36.728;-4.414;2023-02-12T23:46:31;17.60;;;4.05;;
47617;SDS011;33336;36.728;-4.414;2023-02-12T23:51:35;21.00;;;5.13;;
47617;SDS011;33336;36.728;-4.414;2023-02-12T23:56:39;18.52;;;3.42;;
